Time;durP1;ratioP1;P1;durP2;ratioP2;P2;SDS_P1;SDS_P2;PMS_P1;PMS_P2;Temp;Humidity;BMP_temperature;BMP_pressure;BME280_temperature;BME280_humidity;BME280_pressure;Samples;Min_cycle;Max_cycle;Signal;HPM_P1;HPM_P2
2023/12/03 00:00:34;;;;;;;3.40;1.40;;;;;;;1.39;100.00;102017.63;5079612;27;96761;-28
2023/12/03 00:03:00;;;;;;;2.22;1.98;;;;;;;1.33;100.00;102014.09;5098502;27;96759;-27
2023/12/03 00:05:25;;;;;;;2.50;2.03;;;;;;;1.36;100.00;102025.66;5097741;27;98001;-27
2023/12/03 00:07:51;;;;;;;4.43;2.55;;;;;;;1.25;100.00;102007.00;5098176;27;97459;-27
2023/12/03 00:10:16;;;;;;;2.70;1.73;;;;;;;1.36;100.00;102022.09;5098305;27;96672;-27
2023/12/03 00:12:42;;;;;;;1.52;1.42;;;;;;;1.35;100.00;102023.88;5098119;27;96852;-27
2023/12/03 00:15:08;;;;;;;1.55;1.45;;;;;;;1.32;100.00;102015.88;5098083;27;97410;-28
2023/12/03 00:17:33;;;;;;;6.43;1.00;;;;;;;1.35;100.00;102013.19;5097854;27;99304;-27
2023/12/03 00:19:58;;;;;;;2.10;1.90;;;;;;;1.35;100.00;102026.53;5098131;27;96580;-27
2023/12/03 00:22:24;;;;;;;2.65;1.05;;;;;;;1.32;100.00;102012.34;5098495;27;97213;-27
2023/12/03 00:24:49;;;;;;;1.60;1.38;;;;;;;1.31;100.00;102015.88;5098219;27;97337;-27
2023/12/03 00:27:15;;;;;;;2.40;1.65;;;;;;;1.37;100.00;102026.53;5097859;27;97915;-28
2023/12/03 00:29:40;;;;;;;1.35;1.23;;;;;;;1.38;100.00;102034.56;5097361;27;96783;-27
2023/12/03 00:32:05;;;;;;;1.27;1.17;;;;;;;1.35;100.00;102031.88;5098069;27;96833;-29
2023/12/03 00:34:31;;;;;;;1.70;0.90;;;;;;;1.32;100.00;102020.34;5097669;27;98016;-27
2023/12/03 00:36:56;;;;;;;3.50;1.48;;;;;;;1.34;100.00;102026.56;5097484;27;99438;-28
2023/12/03 00:39:22;;;;;;;0.93;0.70;;;;;;;1.29;100.00;102010.56;5098184;27;96557;-27
2023/12/03 00:41:47;;;;;;;3.17;2.40;;;;;;;1.36;100.00;102036.34;5097890;27;96754;-27
2023/12/03 00:44:13;;;;;;;2.50;1.67;;;;;;;1.35;100.00;102025.66;5097398;27;97527;-27
2023/12/03 00:46:38;;;;;;;2.65;2.25;;;;;;;1.34;100.00;102024.78;5098001;27;97817;-27
2023/12/03 00:49:04;;;;;;;1.83;1.60;;;;;;;1.41;100.00;102036.31;5097388;27;96499;-27
2023/12/03 00:51:29;;;;;;;1.55;1.45;;;;;;;1.40;100.00;102029.19;5097278;27;96823;-27
2023/12/03 00:53:54;;;;;;;2.90;1.33;;;;;;;1.37;100.00;102029.22;5097089;27;97462;-28
2023/12/03 00:56:20;;;;;;;1.60;1.25;;;;;;;1.44;100.00;102041.63;5097394;27;97789;-27
2023/12/03 00:58:45;;;;;;;1.00;0.95;;;;;;;1.42;100.00;102033.63;5097647;27;96651;-28
2023/12/03 01:01:10;;;;;;;1.45;1.17;;;;;;;1.44;100.00;102036.31;5097297;27;96788;-28
2023/12/03 01:03:36;;;;;;;2.72;2.42;;;;;;;1.37;100.00;102030.09;5097544;27;97356;-28
2023/12/03 01:06:01;;;;;;;2.17;1.83;;;;;;;1.42;100.00;102036.28;5078504;27;97997;-27
2023/12/03 01:08:26;;;;;;;1.33;1.10;;;;;;;1.39;100.00;102025.63;5097028;27;96641;-27
2023/12/03 01:10:51;;;;;;;1.88;1.33;;;;;;;1.39;100.00;102032.78;5097795;27;96884;-27
2023/12/03 01:13:17;;;;;;;3.65;2.95;;;;;;;1.37;100.00;102024.75;5097021;27;97796;-29
2023/12/03 01:15:47;;;;;;;0.90;0.80;;;;;;;1.34;100.00;102030.13;5097078;27;97286;-27
2023/12/03 01:18:13;;;;;;;3.13;2.72;;;;;;;1.39;100.00;102040.78;5078193;27;96616;-27
2023/12/03 01:20:39;;;;;;;1.38;1.10;;;;;;;1.32;100.00;102039.91;5096952;27;96875;-27
2023/12/03 01:23:04;;;;;;;1.77;0.90;;;;;;;1.30;100.00;102040.81;5078110;27;100939;-27
2023/12/03 01:25:30;;;;;;;1.65;0.90;;;;;;;1.35;100.00;102047.88;5096866;27;97844;-27
2023/12/03 01:27:56;;;;;;;0.57;0.47;;;;;;;1.35;100.00;102053.22;5078325;27;96680;-27
2023/12/03 01:30:21;;;;;;;1.95;1.05;;;;;;;1.35;100.00;102055.03;5096838;27;96816;-28
2023/12/03 01:32:46;;;;;;;1.38;1.25;;;;;;;1.24;100.00;102044.38;5096951;27;97957;-28
2023/12/03 01:35:12;;;;;;;4.43;1.55;;;;;;;1.24;100.00;102055.97;5097068;27;97817;-27
2023/12/03 01:37:37;;;;;;;2.20;1.35;;;;;;;1.14;100.00;102035.50;5096905;27;96526;-28
2023/12/03 01:40:03;;;;;;;4.43;0.85;;;;;;;1.15;100.00;102049.75;5096974;27;96850;-28
2023/12/03 01:42:29;;;;;;;1.58;1.35;;;;;;;1.12;100.00;102055.09;5077326;27;100857;-27
2023/12/03 01:44:54;;;;;;;2.20;1.65;;;;;;;1.13;100.00;102062.22;5096657;27;97632;-28
2023/12/03 01:47:20;;;;;;;1.02;0.95;;;;;;;1.08;100.00;102054.22;5097066;27;96610;-27
2023/12/03 01:49:47;;;;;;;1.30;0.98;;;;;;;1.14;100.00;102063.97;5077839;27;96897;-27
2023/12/03 01:52:14;;;;;;;1.27;0.95;;;;;;;1.04;100.00;102052.44;5077385;27;101023;-28
2023/12/03 01:54:43;;;;;;;1.83;1.45;;;;;;;1.01;100.00;102052.47;5096630;27;97265;-28
2023/12/03 01:57:08;;;;;;;2.22;1.70;;;;;;;0.99;100.00;102056.91;5077841;27;96612;-28
2023/12/03 01:59:34;;;;;;;1.13;0.90;;;;;;;0.99;100.00;102060.47;5097217;27;96797;-27
2023/12/03 02:02:00;;;;;;;2.55;1.52;;;;;;;0.99;100.00;102065.78;5096045;27;99412;-27
2023/12/03 02:04:25;;;;;;;2.25;1.77;;;;;;;0.98;100.00;102069.38;5096398;27;97854;-28
2023/12/03 02:06:50;;;;;;;1.92;1.58;;;;;;;0.96;100.00;102068.47;5096183;27;96538;-27
2023/12/03 02:09:16;;;;;;;0.80;0.77;;;;;;;0.97;100.00;102072.03;5096694;27;96838;-27
2023/12/03 02:11:45;;;;;;;4.53;1.35;;;;;;;0.97;100.00;102077.38;5077229;27;100013;-27
2023/12/03 02:14:11;;;;;;;1.15;1.08;;;;;;;0.94;100.00;102075.59;5095998;27;97792;-28
2023/12/03 02:16:36;;;;;;;0.88;0.85;;;;;;;0.84;100.00;102058.72;5096187;27;96518;-27
2023/12/03 02:19:02;;;;;;;2.50;1.13;;;;;;;0.87;100.00;102072.94;5095059;27;96627;-27
2023/12/03 02:21:28;;;;;;;1.98;1.85;;;;;;;0.76;100.00;102055.19;5077208;27;101020;-27
2023/12/03 02:23:53;;;;;;;2.17;1.25;;;;;;;0.88;100.00;102072.03;5096598;27;97305;-29
2023/12/03 02:26:19;;;;;;;2.72;1.20;;;;;;;0.79;100.00;102055.19;5096101;27;96602;-27
2023/12/03 02:28:44;;;;;;;0.85;0.70;;;;;;;0.82;100.00;102081.84;5096494;27;96805;-27
2023/12/03 02:31:09;;;;;;;1.90;1.48;;;;;;;0.80;100.00;102077.41;5095515;27;97728;-27
2023/12/03 02:33:35;;;;;;;0.95;0.90;;;;;;;0.80;100.00;102072.06;5077338;27;98619;-27
2023/12/03 02:36:01;;;;;;;1.83;1.00;;;;;;;0.81;100.00;102066.75;5096122;27;96579;-27
2023/12/03 02:38:26;;;;;;;1.27;1.02;;;;;;;0.82;100.00;102071.16;5096064;27;96848;-27
2023/12/03 02:40:54;;;;;;;3.25;1.05;;;;;;;0.82;100.00;102073.84;5095627;27;98075;-27
2023/12/03 02:43:19;;;;;;;2.33;2.13;;;;;;;0.74;100.00;102070.31;5077006;27;100910;-27
2023/12/03 02:45:45;;;;;;;0.90;0.90;;;;;;;0.69;100.00;102072.09;5096142;27;96566;-27
2023/12/03 02:48:10;;;;;;;1.88;1.25;;;;;;;0.68;100.00;102067.63;5096471;27;96834;-27
2023/12/03 02:50:35;;;;;;;0.70;0.70;;;;;;;0.65;100.00;102067.66;5095616;27;97413;-27
2023/12/03 02:53:01;;;;;;;1.00;0.93;;;;;;;0.63;100.00;102066.75;5095089;27;97279;-27
2023/12/03 02:55:27;;;;;;;1.38;1.27;;;;;;;0.66;100.00;102071.19;5095199;27;96610;-27
2023/12/03 02:57:52;;;;;;;1.40;0.80;;;;;;;0.62;100.00;102059.63;5096135;27;96796;-27
2023/12/03 03:00:18;;;;;;;1.67;1.58;;;;;;;0.56;100.00;102057.88;5095529;27;97618;-27
2023/12/03 03:02:43;;;;;;;2.83;1.50;;;;;;;0.61;100.00;102069.41;5076706;27;100856;-27
2023/12/03 03:05:09;;;;;;;4.28;2.22;;;;;;;0.62;100.00;102064.97;5095877;27;96470;-27
2023/12/03 03:07:34;;;;;;;2.45;2.20;;;;;;;0.62;100.00;102072.94;5095868;27;96932;-27
2023/12/03 03:09:59;;;;;;;3.50;2.08;;;;;;;0.60;100.00;102061.44;5095354;27;100909;-29
2023/12/03 03:12:24;;;;;;;2.92;1.02;;;;;;;0.58;100.00;102057.88;5095808;27;97748;-27
2023/12/03 03:14:50;;;;;;;2.63;1.85;;;;;;;0.56;100.00;102059.66;5095667;27;96531;-27
2023/12/03 03:17:15;;;;;;;1.30;1.23;;;;;;;0.53;100.00;102055.22;5095745;27;96795;-27
2023/12/03 03:19:44;;;;;;;1.83;1.63;;;;;;;0.57;100.00;102064.06;5094778;27;97888;-27
2023/12/03 03:22:13;;;;;;;2.33;1.58;;;;;;;0.55;100.00;102065.84;5095261;27;97263;-27
2023/12/03 03:24:39;;;;;;;1.05;0.95;;;;;;;0.51;100.00;102056.09;5076754;27;96768;-27
2023/12/03 03:27:05;;;;;;;3.92;2.22;;;;;;;0.51;100.00;102064.97;5076792;27;96493;-27
2023/12/03 03:29:30;;;;;;;5.65;2.78;;;;;;;0.49;100.00;102060.53;5095293;27;98135;-28
2023/12/03 03:31:55;;;;;;;1.63;1.52;;;;;;;0.45;100.00;102056.09;5097906;27;97789;-28
2023/12/03 03:34:20;;;;;;;2.10;1.58;;;;;;;0.44;100.00;102060.53;5099432;27;96659;-28
2023/12/03 03:36:46;;;;;;;2.83;2.05;;;;;;;0.45;100.00;102064.09;5099224;27;96757;-27
2023/12/03 03:39:11;;;;;;;1.20;1.05;;;;;;;0.41;100.00;102069.44;5098495;27;97951;-28
2023/12/03 03:41:36;;;;;;;0.73;0.73;;;;;;;0.39;100.00;102063.19;5098605;27;97757;-27
2023/12/03 03:44:02;;;;;;;1.88;1.48;;;;;;;0.41;100.00;102081.88;5098412;27;96482;-27
2023/12/03 03:46:27;;;;;;;1.95;1.50;;;;;;;0.34;100.00;102078.31;5098923;27;96761;-27
2023/12/03 03:48:53;;;;;;;2.53;1.52;;;;;;;0.38;100.00;102076.53;5098936;27;97378;-27
2023/12/03 03:51:18;;;;;;;1.88;1.58;;;;;;;0.39;100.00;102083.63;5097656;27;99206;-27
2023/12/03 03:53:43;;;;;;;2.60;2.40;;;;;;;0.33;100.00;102070.31;5080030;27;96582;-27
2023/12/03 03:56:10;;;;;;;2.90;2.13;;;;;;;0.31;100.00;102069.41;5098618;27;96918;-27
2023/12/03 03:58:36;;;;;;;1.35;1.27;;;;;;;0.32;100.00;102080.06;5079674;27;102645;-27
2023/12/03 04:01:07;;;;;;;1.45;1.35;;;;;;;0.30;100.00;102097.84;5079742;27;100908;-27
2023/12/03 04:03:33;;;;;;;1.60;1.27;;;;;;;0.17;100.00;102085.41;5079989;27;96593;-27
2023/12/03 04:06:06;;;;;;;3.10;1.70;;;;;;;0.18;100.00;102096.03;5079848;27;96818;-27
2023/12/03 04:08:31;;;;;;;2.47;0.88;;;;;;;0.18;100.00;102081.84;5078844;27;102323;-27
2023/12/03 04:10:57;;;;;;;1.60;1.30;;;;;;;0.22;100.00;102088.97;5079445;27;100902;-27
2023/12/03 04:13:24;;;;;;;2.70;1.67;;;;;;;0.20;100.00;102083.63;5098219;27;96542;-27
2023/12/03 04:15:49;;;;;;;1.08;0.85;;;;;;;0.16;100.00;102086.28;5080105;27;96974;-27
2023/12/03 04:18:14;;;;;;;1.33;1.23;;;;;;;0.11;100.00;102082.72;5098006;27;97454;-27
2023/12/03 04:20:40;;;;;;;1.98;1.30;;;;;;;0.11;100.00;102096.03;5097619;27;97803;-28
2023/12/03 04:23:05;;;;;;;5.50;1.52;;;;;;;0.02;100.00;102078.25;5098141;27;96685;-27
2023/12/03 04:25:30;;;;;;;1.05;0.98;;;;;;;0.09;100.00;102092.47;5098361;27;96729;-27
2023/12/03 04:27:56;;;;;;;2.83;1.88;;;;;;;0.09;100.00;102090.69;5097806;27;97857;-27
2023/12/03 04:30:22;;;;;;;2.13;1.55;;;;;;;0.09;100.00;102081.81;5078986;27;100739;-27
2023/12/03 04:32:47;;;;;;;4.38;1.95;;;;;;;0.08;100.00;102088.94;5097584;27;96799;-27
2023/12/03 04:35:14;;;;;;;2.78;2.17;;;;;;;0.04;100.00;102083.59;5098155;27;96816;-27
2023/12/03 04:37:39;;;;;;;3.47;2.33;;;;;;;0.06;100.00;102082.72;5097214;27;99096;-27
2023/12/03 04:40:05;;;;;;;0.88;0.88;;;;;;;0.03;100.00;102077.38;5097805;27;97732;-27
2023/12/03 04:42:30;;;;;;;1.58;1.30;;;;;;;0.08;100.00;102083.59;5096749;27;96540;-27
2023/12/03 04:44:55;;;;;;;1.77;1.55;;;;;;;0.10;100.00;102083.63;5097781;27;96539;-27
2023/12/03 04:47:21;;;;;;;2.22;2.03;;;;;;;0.01;100.00;102073.81;5097355;27;98837;-27
2023/12/03 04:49:46;;;;;;;0.80;0.70;;;;;;;0.02;100.00;102077.38;5097792;27;97779;-27
2023/12/03 04:52:12;;;;;;;1.50;1.42;;;;;;;0.01;100.00;102084.47;5097298;27;96789;-27
2023/12/03 04:54:37;;;;;;;1.60;1.50;;;;;;;-0.03;100.00;102085.34;5097772;27;96727;-27
2023/12/03 04:57:02;;;;;;;2.00;1.45;;;;;;;-0.02;100.00;102088.03;5096887;27;97762;-27
2023/12/03 04:59:28;;;;;;;3.10;1.80;;;;;;;-0.02;100.00;102093.34;5097310;27;97800;-27
2023/12/03 05:01:53;;;;;;;1.35;1.20;;;;;;;-0.07;100.00;102088.88;5097197;27;96788;-27
2023/12/03 05:04:18;;;;;;;2.28;2.03;;;;;;;-0.09;100.00;102088.03;5097396;27;96886;-27
2023/12/03 05:06:44;;;;;;;2.42;1.55;;;;;;;-0.06;100.00;102091.56;5096717;27;98754;-27
2023/12/03 05:09:09;;;;;;;2.17;1.60;;;;;;;-0.01;100.00;102095.13;5097149;27;97792;-27
2023/12/03 05:11:40;;;;;;;0.70;0.70;;;;;;;-0.03;100.00;102096.88;5097267;27;96644;-26
2023/12/03 05:14:05;;;;;;;1.70;1.17;;;;;;;-0.06;100.00;102091.56;5079261;27;96781;-27
2023/12/03 05:16:31;;;;;;;1.98;1.45;;;;;;;-0.13;100.00;102089.78;5097110;27;98195;-30
2023/12/03 05:18:56;;;;;;;1.30;1.20;;;;;;;-0.09;100.00;102096.00;5097067;27;97837;-27
2023/12/03 05:21:21;;;;;;;2.78;1.98;;;;;;;-0.15;100.00;102093.31;5096194;27;96826;-27
2023/12/03 05:23:47;;;;;;;0.60;0.60;;;;;;;-0.20;100.00;102093.31;5096939;27;96885;-27
2023/12/03 05:26:12;;;;;;;1.27;1.17;;;;;;;-0.24;100.00;102091.50;5096876;27;97945;-27
2023/12/03 05:28:37;;;;;;;1.52;1.40;;;;;;;-0.34;100.00;102079.94;5096986;27;97773;-27
2023/12/03 05:31:04;;;;;;;1.58;0.82;;;;;;;-0.36;100.00;102094.13;5097575;27;96635;-27
2023/12/03 05:33:29;;;;;;;4.82;2.67;;;;;;;-0.32;100.00;102098.59;5096787;27;96952;-27
2023/12/03 05:35:54;;;;;;;2.42;1.25;;;;;;;-0.39;100.00;102086.16;5096570;27;97372;-28
2023/12/03 05:38:20;;;;;;;2.17;1.50;;;;;;;-0.39;100.00;102091.47;5097179;27;97782;-27
2023/12/03 05:40:45;;;;;;;2.97;1.75;;;;;;;-0.41;100.00;102087.91;5096944;27;96555;-28
2023/12/03 05:43:11;;;;;;;2.63;2.08;;;;;;;-0.41;100.00;102098.56;5078317;27;96901;-27
2023/12/03 05:45:36;;;;;;;2.50;2.17;;;;;;;-0.49;100.00;102091.44;5095959;27;99079;-27
2023/12/03 05:48:01;;;;;;;6.88;3.60;;;;;;;-0.50;100.00;102095.00;5096563;27;100577;-27
2023/12/03 05:50:27;;;;;;;2.58;2.08;;;;;;;-0.53;100.00;102094.06;5096566;27;96564;-27
2023/12/03 05:52:52;;;;;;;4.57;2.80;;;;;;;-0.48;100.00;102097.63;5095962;27;99966;-27
2023/12/03 05:55:17;;;;;;;5.03;2.72;;;;;;;-0.52;100.00;102096.75;5096302;27;97889;-27
2023/12/03 05:57:43;;;;;;;2.28;1.52;;;;;;;-0.54;100.00;102093.19;5096360;27;97298;-27
2023/12/03 06:00:09;;;;;;;2.17;1.23;;;;;;;-0.48;100.00;102100.28;5096759;27;96630;-27
2023/12/03 06:02:34;;;;;;;0.52;0.52;;;;;;;-0.48;100.00;102103.88;5096976;27;96947;-27
2023/12/03 06:04:59;;;;;;;2.70;1.77;;;;;;;-0.47;100.00;102113.63;5096199;27;97922;-28
2023/12/03 06:07:25;;;;;;;0.77;0.77;;;;;;;-0.52;100.00;102115.38;5096019;27;102566;-27
2023/12/03 06:09:50;;;;;;;2.65;1.73;;;;;;;-0.54;100.00;102114.47;5095818;27;96483;-27
2023/12/03 06:12:15;;;;;;;2.13;1.90;;;;;;;-0.51;100.00;102122.47;5096730;27;96890;-28
2023/12/03 06:14:41;;;;;;;1.63;1.42;;;;;;;-0.54;100.00;102125.13;5096467;27;97381;-27
2023/12/03 06:17:06;;;;;;;3.50;1.45;;;;;;;-0.56;100.00;102120.66;5095952;27;102437;-27
2023/12/03 06:19:31;;;;;;;2.08;1.77;;;;;;;-0.57;100.00;102118.88;5096146;27;96487;-28
2023/12/03 06:21:57;;;;;;;2.70;1.20;;;;;;;-0.61;100.00;102115.31;5096038;27;96859;-27
2023/12/03 06:24:24;;;;;;;1.17;1.08;;;;;;;-0.64;100.00;102110.00;5096085;27;97949;-27
2023/12/03 06:26:50;;;;;;;2.47;2.25;;;;;;;-0.55;100.00;102130.41;5096112;27;99572;-27
2023/12/03 06:29:15;;;;;;;3.92;1.65;;;;;;;-0.63;100.00;102109.09;5096358;27;96619;-27
2023/12/03 06:31:40;;;;;;;4.22;2.33;;;;;;;-0.61;100.00;102115.31;5096398;27;96841;-27
2023/12/03 06:34:06;;;;;;;1.88;1.30;;;;;;;-0.61;100.00;102106.47;5095773;27;97334;-28
2023/12/03 06:36:31;;;;;;;1.73;1.63;;;;;;;-0.62;100.00;102100.25;5077607;27;97218;-27
2023/12/03 06:38:56;;;;;;;0.75;0.75;;;;;;;-0.64;100.00;102104.69;5096226;27;96524;-27
2023/12/03 06:41:22;;;;;;;1.70;1.60;;;;;;;-0.62;100.00;102104.66;5096057;27;96792;-27
2023/12/03 06:43:47;;;;;;;4.57;3.03;;;;;;;-0.59;100.00;102110.03;5095665;27;99268;-28
2023/12/03 06:46:12;;;;;;;1.42;1.33;;;;;;;-0.58;100.00;102101.16;5095576;27;98672;-27
2023/12/03 06:48:41;;;;;;;1.52;1.42;;;;;;;-0.54;100.00;102102.94;5096170;27;96687;-27
2023/12/03 06:51:08;;;;;;;2.38;2.03;;;;;;;-0.61;100.00;102102.03;5077408;27;96843;-27
2023/12/03 06:53:33;;;;;;;0.73;0.63;;;;;;;-0.60;100.00;102092.25;5076982;27;100949;-27
2023/12/03 06:55:59;;;;;;;1.63;1.48;;;;;;;-0.58;100.00;102095.81;5095775;27;98925;-28
2023/12/03 06:58:24;;;;;;;2.20;1.30;;;;;;;-0.52;100.00;102101.19;5095518;27;96707;-28
2023/12/03 07:00:49;;;;;;;2.53;0.90;;;;;;;-0.58;100.00;102091.38;5095781;27;96771;-27
2023/12/03 07:03:15;;;;;;;0.88;0.88;;;;;;;-0.52;100.00;102103.84;5095448;27;97469;-28
2023/12/03 07:05:41;;;;;;;0.80;0.63;;;;;;;-0.53;100.00;102112.69;5096411;27;97258;-27
2023/12/03 07:08:07;;;;;;;1.33;0.82;;;;;;;-0.55;100.00;102110.03;5099250;27;96659;-27
2023/12/03 07:10:33;;;;;;;1.25;0.98;;;;;;;-0.55;100.00;102112.72;5099422;27;96885;-27
2023/12/03 07:12:58;;;;;;;2.95;2.10;;;;;;;-0.55;100.00;102110.03;5080243;27;99482;-27
2023/12/03 07:15:23;;;;;;;1.42;1.10;;;;;;;-0.63;100.00;102097.56;5099492;27;97375;-27
2023/12/03 07:17:49;;;;;;;8.82;3.88;;;;;;;-0.66;100.00;102107.31;5099527;27;97149;-27
2023/12/03 07:20:14;;;;;;;1.85;1.73;;;;;;;-0.66;100.00;102111.75;5099122;27;96877;-26
2023/12/03 07:22:40;;;;;;;3.88;1.73;;;;;;;-0.66;100.00;102120.63;5098046;27;97396;-27
2023/12/03 07:25:05;;;;;;;3.55;1.55;;;;;;;-0.71;100.00;102116.16;5098770;27;97863;-27
2023/12/03 07:27:31;;;;;;;2.00;1.80;;;;;;;-0.70;100.00;102123.25;5098847;27;96598;-28
2023/12/03 07:29:57;;;;;;;0.28;0.20;;;;;;;-0.75;100.00;102125.00;5099177;27;96782;-27
2023/12/03 07:32:26;;;;;;;4.20;1.00;;;;;;;-0.70;100.00;102126.78;5098637;27;99493;-27
2023/12/03 07:34:52;;;;;;;6.82;1.73;;;;;;;-0.69;100.00;102125.00;5079739;27;101160;-27
2023/12/03 07:37:17;;;;;;;1.63;1.52;;;;;;;-0.65;100.00;102125.03;5080274;27;96619;-27
2023/12/03 07:39:42;;;;;;;4.10;1.55;;;;;;;-0.69;100.00;102122.34;5099447;27;96783;-27
2023/12/03 07:42:08;;;;;;;1.27;1.17;;;;;;;-0.69;100.00;102123.28;5098623;27;97555;-28
2023/12/03 07:44:33;;;;;;;2.67;1.77;;;;;;;-0.69;100.00;102122.34;5098743;27;97392;-27
2023/12/03 07:46:59;;;;;;;4.57;2.72;;;;;;;-0.71;100.00;102124.16;5098194;27;96808;-28
2023/12/03 07:49:24;;;;;;;1.70;1.58;;;;;;;-0.71;100.00;102126.81;5098343;27;97597;-28
2023/12/03 07:51:50;;;;;;;7.13;3.17;;;;;;;-0.71;100.00;102129.47;5098095;27;97411;-27
2023/12/03 07:54:17;;;;;;;6.70;2.60;;;;;;;-0.74;100.00;102130.34;5079904;27;100763;-27
2023/12/03 07:56:42;;;;;;;5.00;4.20;;;;;;;-0.74;100.00;102126.75;5080005;27;96696;-27
2023/12/03 07:59:08;;;;;;;1.63;1.08;;;;;;;-0.69;100.00;102139.22;5098616;27;96766;-28
2023/12/03 08:01:34;;;;;;;3.00;2.25;;;;;;;-0.70;100.00;102141.88;5098313;27;97386;-27
2023/12/03 08:04:00;;;;;;;2.72;2.40;;;;;;;-0.71;100.00;102129.47;5079625;27;100840;-27
2023/12/03 08:06:26;;;;;;;1.17;1.10;;;;;;;-0.67;100.00;102139.22;5098475;27;96531;-28
2023/12/03 08:08:54;;;;;;;0.82;0.60;;;;;;;-0.63;100.00;102138.38;5098846;27;96779;-28
2023/12/03 08:11:20;;;;;;;0.77;0.77;;;;;;;-0.60;100.00;102153.47;5079291;27;97990;-27
2023/12/03 08:13:46;;;;;;;1.42;1.10;;;;;;;-0.61;100.00;102147.25;5079373;27;100976;-27
2023/12/03 08:16:12;;;;;;;2.00;1.33;;;;;;;-0.59;100.00;102148.16;5062446;27;96502;-27
2023/12/03 08:18:37;;;;;;;1.40;1.20;;;;;;;-0.57;100.00;102135.75;5096828;27;96812;-27
2023/12/03 08:21:03;;;;;;;2.80;1.95;;;;;;;-0.57;100.00;102135.75;5097649;27;99242;-27
2023/12/03 08:23:30;;;;;;;2.88;2.00;;;;;;;-0.49;100.00;102144.66;5079195;27;100864;-27
2023/12/03 08:25:56;;;;;;;0.77;0.77;;;;;;;-0.53;100.00;102142.84;5079517;27;96587;-27
2023/12/03 08:28:21;;;;;;;3.35;1.70;;;;;;;-0.50;100.00;102141.97;5098380;27;96738;-28
2023/12/03 08:30:48;;;;;;;1.90;1.80;;;;;;;-0.50;100.00;102136.66;5097814;27;97962;-28
2023/12/03 08:33:14;;;;;;;3.00;2.17;;;;;;;-0.58;100.00;102123.31;5078981;27;101072;-27
2023/12/03 08:35:39;;;;;;;3.67;2.47;;;;;;;-0.52;100.00;102135.78;5078775;27;97031;-27
2023/12/03 08:38:05;;;;;;;6.85;3.95;;;;;;;-0.52;100.00;102126.00;5097798;27;96846;-27
2023/12/03 08:40:30;;;;;;;2.72;1.67;;;;;;;-0.50;100.00;102131.31;5097589;27;99326;-26
2023/12/03 08:42:56;;;;;;;8.57;2.45;;;;;;;-0.46;100.00;102134.00;5097752;27;97620;-26
2023/12/03 08:45:21;;;;;;;3.78;1.77;;;;;;;-0.44;100.00;102132.25;5098005;27;96465;-27
2023/12/03 08:47:46;;;;;;;4.32;2.47;;;;;;;-0.43;100.00;102134.03;5097700;27;97011;-27
2023/12/03 08:50:12;;;;;;;2.25;1.20;;;;;;;-0.33;100.00;102142.97;5097067;27;99388;-27
2023/12/03 08:52:37;;;;;;;2.05;1.42;;;;;;;-0.32;100.00;102144.72;5097343;27;97779;-27
2023/12/03 08:55:04;;;;;;;3.40;2.35;;;;;;;-0.34;100.00;102133.19;5097532;27;96547;-28
2023/12/03 08:57:29;;;;;;;2.55;1.55;;;;;;;-0.27;100.00;102145.63;5079128;27;96907;-27
2023/12/03 08:59:55;;;;;;;4.93;1.80;;;;;;;-0.26;100.00;102146.53;5096713;27;99215;-28
2023/12/03 09:02:20;;;;;;;1.85;1.15;;;;;;;-0.24;100.00;102134.09;5096889;27;97778;-27
2023/12/03 09:04:45;;;;;;;5.25;2.50;;;;;;;-0.18;100.00;102135.91;5097326;27;96639;-27
2023/12/03 09:07:11;;;;;;;3.20;1.55;;;;;;;-0.17;100.00;102133.25;5097665;27;96814;-27
2023/12/03 09:09:36;;;;;;;3.13;1.88;;;;;;;-0.17;100.00;102117.25;5097064;27;99266;-27
2023/12/03 09:12:02;;;;;;;2.67;2.00;;;;;;;-0.17;100.00;102113.72;5096965;27;99250;-27
2023/12/03 09:14:28;;;;;;;4.22;2.20;;;;;;;-0.14;100.00;102114.63;5097287;27;96651;-27
2023/12/03 09:16:54;;;;;;;0.70;0.68;;;;;;;-0.13;100.00;102119.06;5078804;27;96903;-27
2023/12/03 09:19:19;;;;;;;5.75;3.13;;;;;;;-0.06;100.00;102112.00;5096849;27;99492;-27
2023/12/03 09:21:44;;;;;;;1.27;0.77;;;;;;;-0.09;100.00;102112.88;5097004;27;97255;-27
2023/12/03 09:24:10;;;;;;;0.98;0.88;;;;;;;-0.03;100.00;102110.19;5096893;27;96446;-28
2023/12/03 09:26:35;;;;;;;3.50;2.15;;;;;;;-0.01;100.00;102103.09;5097543;27;96789;-27
2023/12/03 09:29:00;;;;;;;4.60;2.60;;;;;;;0.05;100.00;102107.59;5096510;27;97872;-28
2023/12/03 09:31:26;;;;;;;1.98;0.70;;;;;;;0.04;100.00;102108.44;5096893;27;97266;-28
2023/12/03 09:33:51;;;;;;;2.08;1.77;;;;;;;0.01;100.00;102096.91;5095859;27;96797;-27
2023/12/03 09:36:17;;;;;;;0.43;0.43;;;;;;;0.07;100.00;102102.25;5097340;27;96793;-27
2023/12/03 09:38:42;;;;;;;4.82;1.90;;;;;;;0.08;100.00;102104.03;5096558;27;97937;-27
2023/12/03 09:41:11;;;;;;;1.95;1.00;;;;;;;0.12;100.00;102108.47;5077706;27;98795;-30
2023/12/03 09:43:40;;;;;;;3.85;1.92;;;;;;;0.09;100.00;102109.34;5078100;27;96758;-26
2023/12/03 09:46:12;;;;;;;3.30;2.40;;;;;;;0.14;100.00;102094.28;5077917;27;96897;-27
2023/12/03 09:48:42;;;;;;;2.33;1.90;;;;;;;0.15;100.00;102103.16;5077359;27;100822;-27
2023/12/03 09:51:12;;;;;;;1.30;1.20;;;;;;;0.19;100.00;102113.81;5096374;27;99376;-27
2023/12/03 09:53:42;;;;;;;1.70;0.90;;;;;;;0.18;100.00;102113.81;5077722;27;96839;-28
2023/12/03 09:56:08;;;;;;;0.50;0.50;;;;;;;0.20;99.43;102112.03;5078203;27;96762;-27
2023/12/03 09:58:33;;;;;;;11.48;4.95;;;;;;;0.20;99.19;102118.25;5075143;27;101971;-30
2023/12/03 10:01:00;;;;;;;0.82;0.68;;;;;;;0.18;99.09;102113.81;5092795;27;97768;-27
2023/12/03 10:03:26;;;;;;;6.10;2.95;;;;;;;0.17;98.86;102117.38;5092128;27;96900;-36
2023/12/03 10:05:51;;;;;;;0.82;0.80;;;;;;;0.12;98.86;102113.78;5092970;27;97116;-29
2023/12/03 10:08:17;;;;;;;0.82;0.73;;;;;;;0.13;98.22;102110.25;5091639;27;98467;-33
2023/12/03 10:10:46;;;;;;;4.55;1.55;;;;;;;0.19;98.45;102112.91;5092210;27;97956;-31
2023/12/03 10:13:13;;;;;;;8.30;1.40;;;;;;;0.15;99.33;102098.72;5073926;27;96948;-27
2023/12/03 10:15:39;;;;;;;2.95;2.03;;;;;;;0.14;98.98;102085.38;5077873;27;96836;-28
2023/12/03 10:18:05;;;;;;;2.83;2.53;;;;;;;0.14;98.86;102086.28;5096131;27;99329;-27
2023/12/03 10:20:31;;;;;;;1.20;1.00;;;;;;;0.19;97.58;102097.84;5095960;27;97354;-28
2023/12/03 10:22:58;;;;;;;0.85;0.68;;;;;;;0.15;97.77;102092.50;5096478;27;96450;-27
2023/12/03 10:25:29;;;;;;;1.73;1.15;;;;;;;0.20;96.59;102090.72;5077414;27;96667;-27
2023/12/03 10:27:56;;;;;;;1.17;1.08;;;;;;;0.19;97.10;102092.50;5077362;27;98998;-27
2023/12/03 10:30:22;;;;;;;4.30;2.67;;;;;;;0.22;97.22;102075.63;5077308;27;98858;-28
2023/12/03 10:32:48;;;;;;;1.33;0.88;;;;;;;0.24;97.07;102084.53;5093585;27;96737;-32
2023/12/03 10:35:13;;;;;;;7.45;2.78;;;;;;;0.29;96.55;102093.41;5093806;27;97007;-28
2023/12/03 10:37:38;;;;;;;0.30;0.20;;;;;;;0.28;95.51;102074.75;5092801;27;99876;-28
2023/12/03 10:40:04;;;;;;;0.68;0.57;;;;;;;0.35;97.31;102073.88;5093043;27;99034;-27
2023/12/03 10:42:35;;;;;;;0.85;0.80;;;;;;;0.32;96.29;102061.44;5097169;27;96885;-30
2023/12/03 10:45:12;;;;;;;0.57;0.57;;;;;;;0.40;96.53;102064.97;5078923;27;97079;-28
2023/12/03 10:47:38;;;;;;;0.43;0.32;;;;;;;0.37;96.24;102061.44;5099002;27;99486;-27
2023/12/03 10:50:05;;;;;;;4.32;0.90;;;;;;;0.42;96.26;102064.97;5080448;27;100807;-27
2023/12/03 10:52:32;;;;;;;1.45;0.95;;;;;;;0.45;96.42;102072.97;5076803;27;96957;-27
2023/12/03 10:54:57;;;;;;;10.57;4.47;;;;;;;0.45;95.69;102066.75;5077932;27;96798;-27
2023/12/03 10:57:25;;;;;;;0.68;0.68;;;;;;;0.44;95.60;102057.00;5078858;27;97858;-27
2023/12/03 10:59:57;;;;;;;2.63;1.67;;;;;;;0.49;96.28;102061.44;5077052;27;101207;-27
2023/12/03 11:02:25;;;;;;;2.85;2.05;;;;;;;0.58;95.73;102060.53;5076960;27;96714;-27
2023/12/03 11:05:01;;;;;;;2.00;0.85;;;;;;;0.57;95.42;102051.66;5077448;27;96778;-27
2023/12/03 11:07:30;;;;;;;2.92;1.35;;;;;;;0.63;94.05;102053.41;5077171;27;101087;-28
2023/12/03 11:09:57;;;;;;;0.47;0.30;;;;;;;0.70;94.02;102039.19;5078435;27;97318;-27
2023/12/03 11:12:23;;;;;;;15.57;2.08;;;;;;;0.74;92.98;102029.41;5077318;27;96562;-27
2023/12/03 11:14:52;;;;;;;2.50;1.35;;;;;;;0.90;93.64;102044.47;5077357;27;96804;-27